Meath Environmental Platform

Observations for Trim Patrick St

Time AQI Temp °C Hum % Pres Pa CO μg/m³ H₂S μg/m³ NO μg/m³ NO₂ μg/m³ O₃ μg/m³ SO₂ μg/m³ PM1 μg/m³ PM2.5 μg/m³ PM10 μg/m³
Sunday 2 August 2026
03:19 2 13.3 76 38,460 0.24 3.83 2.14 25.15 25.84 0 8 12.61 13.87
03:18 2 13.3 76 38,460 0.24 3.7 2.14 25.43 25.52 0 6.29 12.61 13.87
03:17 2 13.3 75 38,460 0.25 4.5 1.93 28.39 21.71 0 7.14 12.62 13.88
03:16 2 13.3 75 38,460 0.24 4.22 2.03 26.24 24.65 0 6.29 10.5 11.55
03:15 2 13.4 75 38,460 0.24 4.35 1.89 26.12 24.85 0 7.14 13.35 14.68
03:14 2 13.4 75 38,460 0.24 3.68 1.77 24.45 27.07 0 6.29 13.34 14.67
03:13 2 13.4 75 38,460 0.24 3.7 1.6 22.68 29.36 0 7.14 13.35 14.68
03:12 2 13.4 75 38,460 0.24 3.86 1.82 24.97 26.43 0 6.29 11.93 13.13
03:11 2 13.4 75 38,460 0.23 4.19 1.8 26.1 24.96 0 8 13.35 14.69
03:10 2 13.4 75 38,460 0.24 3.18 1.97 22.61 29.54 0 6.29 9.81 10.79
03:09 2 13.4 75 38,460 0.24 3.44 1.92 23.22 28.75 0 6.29 11.94 13.14
03:08 2 13.4 75 38,460 0.23 3.57 2.22 23.48 28.38 0 8 12.66 13.93
03:07 2 13.5 75 38,460 0.23 3.76 2.17 23.08 29.31 0 7.14 12.67 13.94
03:06 2 13.5 75 38,460 0.23 3.42 2.02 22.19 30.43 0 8 12.68 13.95
03:05 2 13.5 75 38,460 0.23 3.52 2 24.47 27.68 0 7.14 11.98 13.17
03:04 2 13.5 75 38,460 0.23 3.37 2.01 22.43 30.14 0 6.29 11.98 13.17
03:03 2 13.5 74 38,460 0.24 3.5 1.94 24.16 28.02 0 5.43 10.56 11.62
03:02 2 13.5 74 38,460 0.23 3.11 1.89 23.26 29.18 0 7.14 13.42 14.76
03:01 2 13.5 74 38,460 0.23 3.6 2.08 22.08 30.05 0 8 11.99 13.19
03:00 2 13.6 74 38,460 0.24 3.89 2.14 25.44 26.94 0 7.14 12 13.2